ROYN/OGN METAR and TAF weather

Enter ICAO airport designator
Station Type Date Time Source
ROYN METAR 2021/01/27 12:00 UTC NOAA

ROYN 271200Z AUTO 05012KT 9999 SCT023 BKN027 OVC050 20/15 Q1017


Station Type Date Time Source
ROYN Decoded METAR 2021/01/27 12:00 UTC NOAA

Yonaguni Airport, Japan (ROYN) 24-28N 122-59E 19M
Jan 27, 2021 - 07:00 AM EST / 2021.01.27 1200 UTC
Wind: from the NE (050 degrees) at 14 MPH (12 KT):0
Visibility: greater than 7 mile(s):0
Sky conditions: overcast
Temperature: 68 F (20 C)
Dew Point: 59 F (15 C)
Relative Humidity: 72%
Pressure (altimeter): 30.03 in. Hg (1017 hPa)
ob: ROYN 271200Z AUTO 05012KT 9999 SCT023 BKN027 OVC050 20/15 Q1017
cycle: 12

Station Type Date Time Source
ROYN TAF UTC NOAA

Error!

Example: see airport list